Terminal Aerodrome Forecast
Issued by NWS Amarillo, TX

Home | Current Version | Previous Version | Text Only | Print | Product List | Glossary On
Versions: 1 2 3 4 5 6 7 8 9 10 11 12 13 14 15 16
000
FTUS44 KAMA 071800 AAA
TAFDHT
TAF AMD
KDHT 071847Z 0719/0818 06013KT 2SM HZ OVC035
      TEMPO 0719/0723 3SM HZ OVC040
     FM072300 08008KT 3SM HZ OVC040
     FM080300 12008KT 1SM BR OVC008
     FM081500 15008KT P6SM OVC015=

USA.gov is the U.S. government's official web portal to all federal, state and local government web resources and services.